createdAt,value
2017-10-10T00:00:00.798Z,0
2017-10-10T00:00:41.277Z,0
2017-10-10T00:01:21.742Z,0
2017-10-10T00:02:02.166Z,0
2017-10-10T00:02:42.630Z,0
2017-10-10T00:03:23.078Z,0
2017-10-10T00:04:03.658Z,0
2017-10-10T00:04:44.087Z,0
2017-10-10T00:05:24.560Z,0
2017-10-10T00:06:04.999Z,0
2017-10-10T00:06:45.573Z,0
2017-10-10T00:07:26.061Z,0
2017-10-10T00:08:06.521Z,0
2017-10-10T00:08:47.146Z,0
2017-10-10T00:09:27.623Z,0
2017-10-10T00:10:08.164Z,0
2017-10-10T00:10:48.637Z,0
2017-10-10T00:11:29.269Z,0
2017-10-10T00:12:09.745Z,0
2017-10-10T00:12:50.194Z,0
2017-10-10T00:13:30.714Z,0
2017-10-10T00:14:11.151Z,0
2017-10-10T00:14:51.656Z,0
2017-10-10T00:15:32.137Z,0
2017-10-10T00:16:12.619Z,0
2017-10-10T00:16:53.046Z,0
2017-10-10T00:17:33.486Z,0
2017-10-10T00:18:13.967Z,0
2017-10-10T00:18:54.423Z,0
2017-10-10T00:19:34.914Z,0
2017-10-10T00:20:15.323Z,0
2017-10-10T00:20:55.822Z,0
2017-10-10T00:21:36.287Z,0
2017-10-10T00:22:16.773Z,0
2017-10-10T00:22:57.198Z,0
2017-10-10T00:23:37.631Z,0
2017-10-10T00:24:18.085Z,0
2017-10-10T00:24:58.497Z,0
2017-10-10T00:25:38.992Z,0
2017-10-10T00:26:19.465Z,0
2017-10-10T00:26:59.930Z,0
2017-10-10T00:27:40.279Z,0
2017-10-10T00:28:20.798Z,0
2017-10-10T00:29:01.290Z,0
2017-10-10T00:29:41.786Z,0
2017-10-10T00:30:22.213Z,0
2017-10-10T00:31:02.673Z,0
2017-10-10T00:31:43.144Z,0
2017-10-10T00:32:23.584Z,0
2017-10-10T00:33:04.037Z,0
2017-10-10T00:33:44.516Z,0
2017-10-10T00:34:24.957Z,0
2017-10-10T00:35:05.403Z,0
2017-10-10T00:35:45.868Z,0
2017-10-10T00:36:26.357Z,0
2017-10-10T00:37:06.813Z,0
2017-10-10T00:37:47.258Z,0
2017-10-10T00:38:27.737Z,0
2017-10-10T00:39:08.177Z,0
2017-10-10T00:39:48.720Z,0
2017-10-10T00:40:29.125Z,0
2017-10-10T00:41:09.590Z,0
2017-10-10T00:41:50.024Z,0
2017-10-10T00:42:30.472Z,0
2017-10-10T00:43:10.886Z,0
2017-10-10T00:43:51.360Z,0
2017-10-10T00:44:31.894Z,0
2017-10-10T00:45:12.363Z,0
2017-10-10T00:45:52.823Z,0
2017-10-10T00:46:33.274Z,0
2017-10-10T00:47:13.750Z,0
2017-10-10T00:47:54.165Z,0
2017-10-10T00:48:34.707Z,0
2017-10-10T00:49:15.171Z,0
2017-10-10T00:49:55.684Z,0
2017-10-10T00:50:36.121Z,0
2017-10-10T00:51:16.597Z,0
2017-10-10T00:51:57.042Z,0
2017-10-10T00:52:37.525Z,0
2017-10-10T00:53:18.022Z,0
2017-10-10T00:53:58.497Z,0
2017-10-10T00:54:38.945Z,0
2017-10-10T00:55:19.408Z,0
2017-10-10T00:55:59.883Z,0
2017-10-10T00:56:40.353Z,0
2017-10-10T00:57:20.846Z,0
2017-10-10T00:58:01.298Z,0
2017-10-10T00:58:41.759Z,0
2017-10-10T00:59:22.194Z,0
2017-10-10T01:00:02.697Z,0
2017-10-10T01:00:43.112Z,0
2017-10-10T01:01:23.606Z,0
2017-10-10T01:02:04.049Z,0
2017-10-10T01:02:44.547Z,0
2017-10-10T01:03:25.009Z,0
2017-10-10T01:04:05.435Z,0
2017-10-10T01:04:45.888Z,0
2017-10-10T01:05:26.418Z,0
2017-10-10T01:06:06.886Z,0
2017-10-10T01:06:47.398Z,0
2017-10-10T01:07:27.946Z,0
2017-10-10T01:08:08.480Z,0
2017-10-10T01:08:48.970Z,0
2017-10-10T01:09:29.421Z,0
2017-10-10T01:10:09.887Z,0
2017-10-10T01:12:27.921Z,0
2017-10-10T01:13:08.377Z,0
2017-10-10T01:13:48.866Z,0
2017-10-10T01:14:29.283Z,0
2017-10-10T01:15:09.748Z,0
2017-10-10T01:15:50.219Z,0
2017-10-10T01:16:30.684Z,0
2017-10-10T01:17:11.125Z,0
2017-10-10T01:17:51.603Z,0
2017-10-10T01:18:31.990Z,0
2017-10-10T01:19:12.448Z,0
2017-10-10T01:19:52.962Z,0
2017-10-10T01:20:33.373Z,0
2017-10-10T01:21:13.876Z,0
2017-10-10T01:21:54.367Z,0
2017-10-10T01:22:34.800Z,0
2017-10-10T01:23:15.239Z,0
2017-10-10T01:23:55.693Z,0
2017-10-10T01:24:36.187Z,0
2017-10-10T01:25:16.618Z,0
2017-10-10T01:25:57.233Z,0
2017-10-10T01:26:37.634Z,0
2017-10-10T01:27:18.094Z,0
2017-10-10T01:27:58.597Z,0
2017-10-10T01:28:39.080Z,0
2017-10-10T01:29:19.488Z,0
2017-10-10T01:29:59.954Z,0
2017-10-10T01:30:40.431Z,0
2017-10-10T01:31:20.872Z,0
2017-10-10T01:32:01.308Z,0
2017-10-10T01:32:41.794Z,0
2017-10-10T01:33:22.317Z,0
2017-10-10T01:34:02.766Z,0
2017-10-10T01:34:43.226Z,0
2017-10-10T01:35:23.707Z,0
2017-10-10T01:36:04.163Z,0
2017-10-10T01:36:44.620Z,0
2017-10-10T01:37:25.116Z,0
2017-10-10T01:38:05.516Z,0
2017-10-10T01:38:46.018Z,0
2017-10-10T01:39:26.542Z,0
2017-10-10T01:40:07.018Z,0
2017-10-10T01:40:47.497Z,0
2017-10-10T01:41:27.954Z,0
2017-10-10T01:42:08.494Z,0
2017-10-10T01:42:49.116Z,0
2017-10-10T01:43:29.497Z,0
2017-10-10T01:44:09.950Z,0
2017-10-10T01:44:50.418Z,0
2017-10-10T01:45:30.908Z,0
2017-10-10T01:46:11.514Z,0
2017-10-10T01:46:52.003Z,0
2017-10-10T01:47:32.393Z,0
2017-10-10T01:48:12.895Z,0
2017-10-10T01:48:53.297Z,0
2017-10-10T01:49:33.854Z,0
2017-10-10T01:50:14.371Z,0
2017-10-10T01:50:54.851Z,0
2017-10-10T01:51:35.304Z,0
2017-10-10T01:52:15.775Z,0
2017-10-10T01:52:56.258Z,0
2017-10-10T01:53:36.629Z,0
2017-10-10T01:54:17.065Z,0
2017-10-10T01:54:57.599Z,0
2017-10-10T01:55:38.069Z,0
2017-10-10T01:56:18.525Z,0
2017-10-10T01:56:58.992Z,0
2017-10-10T01:57:39.425Z,0
2017-10-10T01:58:19.925Z,0
2017-10-10T01:59:00.297Z,0
2017-10-10T01:59:40.787Z,0
2017-10-10T02:00:21.294Z,0
2017-10-10T02:01:01.789Z,0
2017-10-10T02:01:42.218Z,0
2017-10-10T02:02:22.680Z,0
2017-10-10T02:03:03.196Z,0
2017-10-10T02:03:43.852Z,0
2017-10-10T02:04:24.157Z,0
2017-10-10T02:05:04.583Z,0
2017-10-10T02:05:45.031Z,0
2017-10-10T02:06:25.554Z,0
2017-10-10T02:07:05.989Z,0
2017-10-10T02:07:46.439Z,0
2017-10-10T02:08:26.915Z,0
2017-10-10T02:09:07.452Z,0
2017-10-10T02:09:47.890Z,0
2017-10-10T02:10:28.344Z,0
2017-10-10T02:11:08.860Z,0
2017-10-10T02:11:49.333Z,0
2017-10-10T02:12:29.761Z,0
2017-10-10T02:13:10.208Z,0
2017-10-10T02:13:50.746Z,0
2017-10-10T02:14:31.166Z,0
2017-10-10T02:15:11.578Z,0
2017-10-10T02:15:52.027Z,0
2017-10-10T02:16:32.469Z,0
2017-10-10T02:17:13.015Z,0
2017-10-10T02:17:53.466Z,0
2017-10-10T02:18:33.920Z,0
2017-10-10T02:19:14.402Z,0
2017-10-10T02:19:54.907Z,0
2017-10-10T02:20:35.357Z,0
2017-10-10T02:21:15.845Z,0
2017-10-10T02:21:56.285Z,0
2017-10-10T02:22:36.719Z,0
2017-10-10T02:23:17.192Z,0
2017-10-10T02:23:57.655Z,0
2017-10-10T02:24:38.117Z,0
2017-10-10T02:25:18.572Z,0
2017-10-10T02:25:59.052Z,0
2017-10-10T02:26:39.508Z,0
2017-10-10T02:27:20.124Z,0
2017-10-10T02:28:00.603Z,0
2017-10-10T02:28:41.044Z,0
2017-10-10T02:29:21.614Z,0
2017-10-10T02:30:02.085Z,0
2017-10-10T02:30:42.554Z,0
2017-10-10T02:31:23.043Z,0
2017-10-10T02:32:03.480Z,0
2017-10-10T02:32:43.965Z,0
2017-10-10T02:33:24.416Z,0
2017-10-10T02:34:04.878Z,0
2017-10-10T02:34:45.375Z,0
2017-10-10T02:35:25.830Z,0
2017-10-10T02:36:06.368Z,0
2017-10-10T02:36:46.839Z,0
2017-10-10T02:37:27.356Z,0
2017-10-10T02:38:07.789Z,0
2017-10-10T02:38:48.252Z,0
2017-10-10T02:39:28.733Z,0
2017-10-10T02:40:09.213Z,0
2017-10-10T02:40:49.697Z,0
2017-10-10T02:41:30.168Z,0
2017-10-10T02:42:10.617Z,0
2017-10-10T02:42:51.054Z,0
2017-10-10T02:43:31.520Z,0
2017-10-10T02:44:11.962Z,0
2017-10-10T02:44:52.751Z,0
2017-10-10T02:45:33.168Z,0
2017-10-10T02:46:13.629Z,0
2017-10-10T02:46:54.197Z,0
2017-10-10T02:47:34.657Z,0
2017-10-10T02:48:15.119Z,0
2017-10-10T02:48:55.684Z,0
2017-10-10T02:49:36.045Z,0
2017-10-10T02:50:16.437Z,0
2017-10-10T02:50:56.903Z,0
2017-10-10T02:51:37.434Z,0
2017-10-10T02:52:17.869Z,0
2017-10-10T02:52:58.447Z,0
2017-10-10T02:53:38.940Z,0
2017-10-10T02:54:19.382Z,0
2017-10-10T02:54:59.857Z,0
2017-10-10T02:55:40.296Z,0
2017-10-10T02:56:20.751Z,0
2017-10-10T02:57:01.198Z,0
2017-10-10T02:57:41.675Z,0
2017-10-10T02:58:22.205Z,0
2017-10-10T02:59:02.666Z,0
2017-10-10T02:59:43.101Z,0
2017-10-10T03:00:23.616Z,0
2017-10-10T03:01:04.173Z,0
2017-10-10T03:01:44.642Z,0
2017-10-10T03:02:25.096Z,0
2017-10-10T03:03:05.531Z,0
2017-10-10T03:03:45.967Z,0
2017-10-10T03:04:26.464Z,0
2017-10-10T03:05:06.887Z,0
2017-10-10T03:05:47.371Z,0
2017-10-10T03:06:27.871Z,0
2017-10-10T03:07:08.367Z,0
2017-10-10T03:07:48.829Z,0
2017-10-10T03:08:29.329Z,0
2017-10-10T03:09:09.876Z,0
2017-10-10T03:09:50.326Z,0
2017-10-10T03:10:30.802Z,0
2017-10-10T03:11:11.308Z,0
2017-10-10T03:11:51.781Z,0
2017-10-10T03:12:32.248Z,0
2017-10-10T03:13:12.699Z,0
2017-10-10T03:13:53.133Z,0
2017-10-10T03:14:33.658Z,0
2017-10-10T03:15:14.094Z,0
2017-10-10T03:15:54.567Z,0
2017-10-10T03:16:35.124Z,0
2017-10-10T03:18:53.460Z,0
2017-10-10T03:19:33.896Z,0
2017-10-10T03:20:14.340Z,0
2017-10-10T03:20:54.778Z,0
2017-10-10T03:21:35.236Z,0
2017-10-10T03:22:15.694Z,0
2017-10-10T03:22:56.191Z,0
2017-10-10T03:23:36.593Z,0
2017-10-10T03:24:17.049Z,0
2017-10-10T03:24:57.581Z,0
2017-10-10T03:25:38.119Z,0
2017-10-10T03:26:18.500Z,0
2017-10-10T03:26:58.938Z,0
2017-10-10T03:27:39.426Z,0
2017-10-10T03:28:19.887Z,0
2017-10-10T03:29:00.429Z,0
2017-10-10T03:29:40.900Z,0
2017-10-10T03:30:21.355Z,0
2017-10-10T03:31:01.760Z,0
2017-10-10T03:31:42.240Z,0
2017-10-10T03:32:22.941Z,0
2017-10-10T03:33:03.445Z,0
2017-10-10T03:33:43.944Z,0
2017-10-10T03:34:24.390Z,0
2017-10-10T03:35:04.893Z,0
2017-10-10T03:35:45.352Z,0
2017-10-10T03:36:25.810Z,0
2017-10-10T03:37:06.449Z,0
2017-10-10T03:37:46.965Z,0
2017-10-10T03:38:27.336Z,0
2017-10-10T03:39:07.821Z,0
2017-10-10T03:39:48.363Z,0
2017-10-10T03:40:28.793Z,0
2017-10-10T03:41:09.308Z,0
2017-10-10T03:41:49.684Z,0
2017-10-10T03:42:30.174Z,0
2017-10-10T03:43:10.718Z,0
2017-10-10T03:43:51.128Z,0
2017-10-10T03:44:31.534Z,0
2017-10-10T03:45:11.961Z,0
2017-10-10T03:45:52.450Z,0
2017-10-10T03:46:32.845Z,0
2017-10-10T03:47:13.336Z,0
2017-10-10T03:47:53.823Z,0
2017-10-10T03:48:34.279Z,0
2017-10-10T03:49:14.727Z,0
2017-10-10T03:49:55.186Z,0
2017-10-10T03:50:35.662Z,0
2017-10-10T03:51:16.156Z,0
2017-10-10T03:51:56.616Z,0
2017-10-10T03:52:37.076Z,0
2017-10-10T03:53:17.540Z,0
2017-10-10T03:53:58.013Z,0
2017-10-10T03:54:38.444Z,0
2017-10-10T03:55:18.937Z,0
2017-10-10T03:55:59.406Z,0
2017-10-10T03:56:39.822Z,0
2017-10-10T03:57:20.363Z,0
2017-10-10T03:58:00.824Z,0
2017-10-10T03:58:41.311Z,0
2017-10-10T03:59:21.778Z,0
2017-10-10T04:00:02.215Z,0
2017-10-10T04:00:42.748Z,0
2017-10-10T04:01:23.171Z,0
2017-10-10T04:02:03.597Z,0
2017-10-10T04:02:44.080Z,0
2017-10-10T04:03:24.534Z,0
2017-10-10T04:04:05.017Z,0
2017-10-10T04:04:45.442Z,0
2017-10-10T04:05:25.892Z,0
2017-10-10T04:06:06.352Z,0
2017-10-10T04:06:46.837Z,0
2017-10-10T04:07:27.257Z,0
2017-10-10T04:08:07.705Z,0
2017-10-10T04:08:48.178Z,0
2017-10-10T04:09:28.640Z,0
2017-10-10T04:10:09.042Z,0
2017-10-10T04:10:49.505Z,0
2017-10-10T04:11:30.032Z,0
2017-10-10T04:12:10.471Z,0
2017-10-10T04:12:50.947Z,0
2017-10-10T04:13:31.395Z,0
2017-10-10T04:14:11.833Z,0
2017-10-10T04:14:52.290Z,0
2017-10-10T04:15:32.730Z,0
2017-10-10T04:16:13.170Z,0
2017-10-10T04:16:53.627Z,0
2017-10-10T04:17:34.131Z,0
2017-10-10T04:18:14.601Z,0
2017-10-10T04:18:55.066Z,0
2017-10-10T04:19:35.490Z,0
2017-10-10T04:20:15.918Z,0
2017-10-10T04:20:56.415Z,0
2017-10-10T04:21:36.899Z,0
2017-10-10T04:22:17.349Z,0
2017-10-10T04:22:57.872Z,0
2017-10-10T04:23:38.345Z,0
2017-10-10T04:25:36.522Z,0
2017-10-10T04:26:17.001Z,0
2017-10-10T04:26:57.445Z,0
2017-10-10T04:27:37.962Z,0
2017-10-10T04:28:18.478Z,0
2017-10-10T04:28:58.895Z,0
2017-10-10T04:29:39.352Z,0
2017-10-10T04:30:19.792Z,0
2017-10-10T04:31:00.212Z,0
2017-10-10T04:31:40.674Z,0
2017-10-10T04:32:22.084Z,0
2017-10-10T04:33:02.618Z,0
2017-10-10T04:33:43.226Z,0
2017-10-10T04:34:23.636Z,0
2017-10-10T04:35:04.091Z,0
2017-10-10T04:35:44.558Z,0
2017-10-10T04:36:24.997Z,0
2017-10-10T04:37:05.425Z,0
2017-10-10T04:37:45.934Z,0
2017-10-10T04:38:26.413Z,0
2017-10-10T04:39:06.855Z,0
2017-10-10T04:39:47.311Z,0
2017-10-10T04:40:27.808Z,0
2017-10-10T04:41:08.227Z,0
2017-10-10T04:41:48.782Z,0
2017-10-10T04:42:29.235Z,0
2017-10-10T04:43:09.725Z,0
2017-10-10T04:43:50.177Z,0
2017-10-10T04:44:30.663Z,0
2017-10-10T04:45:11.189Z,0
2017-10-10T04:45:51.658Z,0
2017-10-10T04:46:32.093Z,0
2017-10-10T04:47:12.505Z,0
2017-10-10T04:47:52.950Z,0
2017-10-10T04:48:33.441Z,0
2017-10-10T04:49:14.049Z,0
2017-10-10T04:49:54.400Z,0
2017-10-10T04:50:34.888Z,0
2017-10-10T04:51:15.341Z,0
2017-10-10T04:51:55.883Z,0
2017-10-10T04:52:36.411Z,0
2017-10-10T04:53:16.885Z,0
2017-10-10T04:53:57.343Z,0
2017-10-10T04:54:37.784Z,0
2017-10-10T04:55:18.241Z,0
2017-10-10T04:55:58.706Z,0
2017-10-10T04:56:39.174Z,0
2017-10-10T04:57:19.775Z,0
2017-10-10T04:58:00.248Z,0
2017-10-10T04:58:40.780Z,0
2017-10-10T04:59:21.182Z,0
2017-10-10T05:00:01.649Z,0
2017-10-10T05:00:42.271Z,0
2017-10-10T05:01:22.673Z,0
2017-10-10T05:02:03.112Z,0
2017-10-10T05:02:43.615Z,0
2017-10-10T05:03:24.054Z,0
2017-10-10T05:04:04.517Z,0
2017-10-10T05:04:44.982Z,0
2017-10-10T05:05:25.452Z,0
2017-10-10T05:06:05.864Z,0
2017-10-10T05:06:46.420Z,0
2017-10-10T05:07:26.837Z,0
2017-10-10T05:08:07.361Z,0
2017-10-10T05:08:47.860Z,0
2017-10-10T05:09:28.267Z,0
2017-10-10T05:10:08.775Z,0
2017-10-10T05:10:49.231Z,0
2017-10-10T05:11:29.661Z,0
2017-10-10T05:12:10.123Z,0
2017-10-10T05:12:50.614Z,0
2017-10-10T05:13:31.116Z,4
2017-10-10T05:14:11.654Z,4
2017-10-10T05:14:52.153Z,4
2017-10-10T05:15:32.600Z,0
2017-10-10T05:16:13.111Z,0
2017-10-10T05:16:53.565Z,4
2017-10-10T05:17:34.029Z,4
2017-10-10T05:18:14.540Z,4
2017-10-10T05:18:55.048Z,4
2017-10-10T05:19:35.815Z,4
2017-10-10T05:20:16.343Z,4
2017-10-10T05:20:56.801Z,8
2017-10-10T05:21:37.306Z,4
2017-10-10T05:22:17.832Z,8
2017-10-10T05:22:58.360Z,8
2017-10-10T05:23:38.808Z,8
2017-10-10T05:24:19.307Z,8
2017-10-10T05:24:59.849Z,12
2017-10-10T05:25:40.307Z,12
2017-10-10T05:27:53.401Z,24
2017-10-10T05:28:33.863Z,24
2017-10-10T05:29:14.248Z,28
2017-10-10T05:29:54.717Z,32
2017-10-10T05:30:35.185Z,32
2017-10-10T05:31:15.721Z,36
2017-10-10T05:31:56.128Z,40
2017-10-10T05:32:36.651Z,44
2017-10-10T05:33:17.101Z,48
2017-10-10T05:33:57.572Z,48
2017-10-10T05:34:38.025Z,52
2017-10-10T05:35:18.637Z,56
2017-10-10T05:35:59.299Z,60
2017-10-10T05:36:39.910Z,60
2017-10-10T05:37:20.599Z,64
2017-10-10T05:38:01.176Z,68
2017-10-10T05:38:41.878Z,76
2017-10-10T05:39:23.312Z,84
2017-10-10T05:40:04.081Z,96
2017-10-10T05:40:44.772Z,100
2017-10-10T05:41:25.484Z,108
2017-10-10T05:42:06.116Z,112
2017-10-10T05:42:46.749Z,116
2017-10-10T05:43:27.331Z,128
2017-10-10T05:44:08.152Z,136
2017-10-10T05:44:48.904Z,148
2017-10-10T05:45:29.481Z,160
2017-10-10T05:46:10.209Z,168
2017-10-10T05:46:50.884Z,176
2017-10-10T05:47:31.440Z,180
2017-10-10T05:48:12.041Z,180
2017-10-10T05:48:52.720Z,184
2017-10-10T05:49:33.388Z,184
2017-10-10T05:50:14.039Z,184
2017-10-10T05:50:54.698Z,188
2017-10-10T05:51:35.446Z,192
2017-10-10T05:52:16.128Z,204
2017-10-10T05:52:56.814Z,216
2017-10-10T05:53:37.475Z,232
2017-10-10T05:54:18.044Z,252
2017-10-10T05:54:58.676Z,264
2017-10-10T05:55:39.312Z,280
2017-10-10T05:56:19.933Z,296
2017-10-10T05:57:00.563Z,312
2017-10-10T05:57:41.234Z,316
2017-10-10T05:58:22.099Z,320
2017-10-10T05:59:02.861Z,320
2017-10-10T05:59:43.408Z,324
2017-10-10T06:00:23.990Z,328
2017-10-10T06:01:04.645Z,344
2017-10-10T06:01:45.155Z,364
2017-10-10T06:02:25.634Z,384
2017-10-10T06:03:06.172Z,412
2017-10-10T06:03:46.689Z,436
2017-10-10T06:04:27.292Z,468
2017-10-10T06:05:07.825Z,496
2017-10-10T06:05:48.445Z,516
2017-10-10T06:06:29.052Z,528
2017-10-10T06:07:09.684Z,532
2017-10-10T06:07:50.369Z,536
2017-10-10T06:08:30.884Z,544
2017-10-10T06:09:11.547Z,560
2017-10-10T06:09:52.090Z,572
2017-10-10T06:10:32.618Z,588
2017-10-10T06:11:13.299Z,612
2017-10-10T06:11:54.010Z,636
2017-10-10T06:12:34.657Z,672
2017-10-10T06:13:15.245Z,700
2017-10-10T06:13:55.774Z,720
2017-10-10T06:14:36.338Z,744
2017-10-10T06:15:17.737Z,776
2017-10-10T06:15:58.322Z,792
2017-10-10T06:16:38.923Z,784
2017-10-10T06:17:19.423Z,784
2017-10-10T06:17:59.964Z,796
2017-10-10T06:18:40.473Z,816
2017-10-10T06:19:21.007Z,836
2017-10-10T06:20:01.547Z,868
2017-10-10T06:20:42.115Z,904
2017-10-10T06:21:22.664Z,932
2017-10-10T06:22:03.303Z,964
2017-10-10T06:22:43.899Z,984
2017-10-10T06:23:24.615Z,988
2017-10-10T06:24:05.164Z,992
2017-10-10T06:24:45.715Z,1020
2017-10-10T06:25:26.262Z,1064
2017-10-10T06:26:07.332Z,1100
2017-10-10T06:26:47.984Z,1140
2017-10-10T06:27:28.569Z,1176
2017-10-10T06:28:09.214Z,1224
2017-10-10T06:28:49.848Z,1272
2017-10-10T06:29:30.430Z,1308
2017-10-10T06:30:11.106Z,1336
2017-10-10T06:30:51.636Z,1316
2017-10-10T06:31:32.256Z,1268
2017-10-10T06:32:12.837Z,1208
2017-10-10T06:32:53.535Z,1140
2017-10-10T06:33:34.107Z,1104
2017-10-10T06:34:14.819Z,1084
2017-10-10T06:34:55.435Z,1088
2017-10-10T06:35:36.005Z,1112
2017-10-10T06:36:16.646Z,1156
2017-10-10T06:36:57.333Z,1212
2017-10-10T06:37:37.932Z,1276
2017-10-10T06:38:18.583Z,1368
2017-10-10T06:38:59.202Z,1460
2017-10-10T06:39:39.897Z,1552
2017-10-10T06:40:20.528Z,1672
2017-10-10T06:41:01.210Z,1816
2017-10-10T06:41:41.907Z,1968
2017-10-10T06:42:22.546Z,2112
2017-10-10T06:43:03.207Z,2244
2017-10-10T06:43:43.823Z,2388
2017-10-10T06:44:24.435Z,2528
2017-10-10T06:45:05.040Z,2660
2017-10-10T06:45:45.774Z,2772
2017-10-10T06:46:26.391Z,2864
2017-10-10T06:47:07.062Z,2932
2017-10-10T06:47:47.633Z,2968
2017-10-10T06:48:28.280Z,3012
2017-10-10T06:49:08.949Z,3104
2017-10-10T06:49:49.661Z,3200
2017-10-10T06:50:30.236Z,3292
2017-10-10T06:51:10.906Z,3344
2017-10-10T06:51:51.575Z,3408
2017-10-10T06:52:32.351Z,3504
2017-10-10T06:53:13.235Z,3604
2017-10-10T06:53:53.896Z,3692
2017-10-10T06:54:34.551Z,3896
2017-10-10T06:58:24.895Z,4848
2017-10-10T06:59:12.614Z,4980
2017-10-10T06:59:55.199Z,5016
2017-10-10T07:00:36.693Z,4984
2017-10-10T07:01:17.319Z,4980
2017-10-10T07:01:57.950Z,5000
2017-10-10T07:02:38.599Z,5052
2017-10-10T07:03:19.235Z,5168
2017-10-10T07:03:59.872Z,5432
2017-10-10T07:04:40.557Z,5816
2017-10-10T07:05:21.265Z,6144
2017-10-10T07:06:02.011Z,6356
2017-10-10T07:06:42.630Z,6436
2017-10-10T07:07:23.804Z,6516
2017-10-10T07:08:04.366Z,6460
2017-10-10T07:08:46.735Z,6416
2017-10-10T07:10:59.421Z,6312
2017-10-10T07:11:40.167Z,6328
2017-10-10T07:12:20.760Z,6452
2017-10-10T07:13:01.229Z,6552
2017-10-10T07:13:41.886Z,6632
2017-10-10T07:14:22.600Z,6716
2017-10-10T07:15:04.138Z,6688
2017-10-10T07:15:45.085Z,6568
2017-10-10T07:16:25.785Z,6500
2017-10-10T07:17:06.449Z,6488
2017-10-10T07:17:47.095Z,6576
2017-10-10T07:18:27.746Z,6728
2017-10-10T07:19:08.752Z,6800
2017-10-10T07:19:49.384Z,6876
2017-10-10T07:20:30.247Z,7096
2017-10-10T07:21:10.969Z,7288
2017-10-10T07:21:51.674Z,7308
2017-10-10T07:22:32.390Z,7260
2017-10-10T07:23:13.163Z,7148
2017-10-10T07:23:53.822Z,6876
2017-10-10T07:24:34.479Z,6572
2017-10-10T07:25:15.109Z,6216
2017-10-10T07:25:55.797Z,5956
2017-10-10T07:26:38.099Z,5752
2017-10-10T07:27:18.651Z,5504
2017-10-10T07:27:59.813Z,5236
2017-10-10T07:28:40.325Z,5008
2017-10-10T07:29:20.923Z,4764
2017-10-10T07:30:01.269Z,4532
2017-10-10T07:30:41.764Z,4356
2017-10-10T07:31:22.246Z,4192
2017-10-10T07:32:02.690Z,3964
2017-10-10T07:32:43.280Z,3776
2017-10-10T07:33:23.808Z,3504
2017-10-10T07:34:04.414Z,3316
2017-10-10T07:34:44.892Z,3096
2017-10-10T07:35:25.854Z,2908
2017-10-10T07:36:06.475Z,2744
2017-10-10T07:36:47.037Z,2624
2017-10-10T07:37:27.502Z,2564
2017-10-10T07:38:08.010Z,2532
2017-10-10T07:38:48.701Z,2488
2017-10-10T07:39:29.558Z,2424
2017-10-10T07:40:10.090Z,2352
2017-10-10T07:40:50.588Z,2280
2017-10-10T07:41:31.111Z,2188
2017-10-10T07:42:11.577Z,2072
2017-10-10T07:42:52.582Z,1972
2017-10-10T07:43:35.828Z,1896
2017-10-10T07:44:15.240Z,1856
2017-10-10T07:44:55.909Z,1840
2017-10-10T07:45:36.321Z,1844
2017-10-10T07:46:16.811Z,1888
2017-10-10T07:46:57.248Z,1980
2017-10-10T07:47:37.928Z,2100
2017-10-10T07:48:18.497Z,2252
2017-10-10T07:48:59.168Z,2424
2017-10-10T07:49:39.677Z,2672
2017-10-10T07:50:20.152Z,2988
2017-10-10T07:51:01.196Z,3256
2017-10-10T07:51:41.760Z,3436
2017-10-10T07:52:22.272Z,3624
2017-10-10T07:53:02.815Z,3764
2017-10-10T07:53:43.301Z,3944
2017-10-10T07:54:23.806Z,4164
2017-10-10T07:55:04.353Z,4468
2017-10-10T07:55:44.825Z,4796
2017-10-10T07:56:25.286Z,5164
2017-10-10T07:57:05.789Z,5544
2017-10-10T07:57:46.231Z,5828
2017-10-10T07:58:26.685Z,5876
2017-10-10T07:59:08.210Z,5760
2017-10-10T07:59:47.697Z,5580
2017-10-10T08:00:28.264Z,5468
2017-10-10T08:01:08.717Z,5448
2017-10-10T08:01:49.325Z,5492
2017-10-10T08:02:30.140Z,5540
2017-10-10T08:03:10.286Z,5452
2017-10-10T08:03:50.865Z,5456
2017-10-10T08:04:31.811Z,5264
2017-10-10T08:05:12.329Z,4964
2017-10-10T08:05:52.824Z,4840
2017-10-10T08:06:33.424Z,4756
2017-10-10T08:07:14.770Z,4628
2017-10-10T08:07:55.372Z,4344
2017-10-10T08:08:35.929Z,4032
2017-10-10T08:09:16.472Z,3740
2017-10-10T08:09:56.917Z,3392
2017-10-10T08:10:37.405Z,3040
2017-10-10T08:11:18.018Z,2740
2017-10-10T08:11:58.617Z,2512
2017-10-10T08:12:39.209Z,2368
2017-10-10T08:13:19.765Z,2220
2017-10-10T08:14:00.273Z,2136
2017-10-10T08:14:40.896Z,2112
2017-10-10T08:15:21.408Z,2100
2017-10-10T08:16:01.970Z,2268
2017-10-10T08:16:42.431Z,2668
2017-10-10T08:17:22.862Z,3044
2017-10-10T08:18:03.394Z,3276
2017-10-10T08:18:43.891Z,3428
2017-10-10T08:19:24.372Z,3380
2017-10-10T08:20:04.924Z,3400
2017-10-10T08:20:45.271Z,3484
2017-10-10T08:21:25.772Z,3684
2017-10-10T08:22:06.281Z,3880
2017-10-10T08:22:46.776Z,4068
2017-10-10T08:23:27.335Z,4116
2017-10-10T08:24:07.819Z,4084
2017-10-10T08:24:48.332Z,3904
2017-10-10T08:25:28.774Z,3528
2017-10-10T08:26:09.283Z,3176
2017-10-10T08:26:50.017Z,3072
2017-10-10T08:27:30.574Z,3260
2017-10-10T08:28:11.089Z,3700
2017-10-10T08:28:51.595Z,4376
2017-10-10T08:29:32.062Z,5160
2017-10-10T08:30:12.588Z,5840
2017-10-10T08:30:53.223Z,6356
2017-10-10T08:31:33.814Z,6528
2017-10-10T08:32:14.183Z,6400
2017-10-10T08:32:54.687Z,6544
2017-10-10T08:33:35.160Z,6904
2017-10-10T08:34:15.650Z,7236
2017-10-10T08:35:00.820Z,7996
2017-10-10T08:35:40.987Z,9164
2017-10-10T08:36:21.480Z,10200
2017-10-10T08:37:02.002Z,10964
2017-10-10T08:37:42.472Z,11280
2017-10-10T08:38:22.918Z,11288
2017-10-10T08:39:03.486Z,11108
2017-10-10T08:39:43.957Z,10788
2017-10-10T08:42:17.148Z,8276
2017-10-10T08:42:57.552Z,7856
2017-10-10T08:43:38.053Z,7548
2017-10-10T08:44:18.525Z,7648
2017-10-10T08:44:59.065Z,7956
2017-10-10T08:45:40.550Z,8140
2017-10-10T08:46:21.134Z,8488
2017-10-10T08:47:01.686Z,8544
2017-10-10T08:47:42.159Z,7792
2017-10-10T08:48:22.688Z,6692
2017-10-10T08:49:03.143Z,5936
2017-10-10T08:49:43.716Z,5508
2017-10-10T08:50:24.303Z,4972
2017-10-10T08:51:04.901Z,4580
2017-10-10T08:51:45.367Z,4556
2017-10-10T08:52:25.761Z,4900
2017-10-10T08:53:06.262Z,5660
2017-10-10T08:53:46.821Z,6780
2017-10-10T08:54:28.057Z,8176
2017-10-10T08:55:08.591Z,9452
2017-10-10T08:55:49.066Z,9992
2017-10-10T08:56:29.523Z,10692
2017-10-10T08:57:10.106Z,11364
2017-10-10T08:57:50.445Z,11368
2017-10-10T08:58:31.001Z,10848
2017-10-10T08:59:11.510Z,11172
2017-10-10T08:59:51.999Z,10700
2017-10-10T09:00:32.599Z,9900
2017-10-10T09:01:13.162Z,9128
2017-10-10T09:01:53.631Z,8424
2017-10-10T09:02:35.284Z,7644
2017-10-10T09:03:15.943Z,7232
2017-10-10T09:03:56.423Z,7124
2017-10-10T09:04:36.924Z,7152
2017-10-10T09:05:17.443Z,7616
2017-10-10T09:05:57.985Z,8404
2017-10-10T09:06:38.494Z,9148
2017-10-10T09:07:18.924Z,9888
2017-10-10T09:07:59.555Z,11080
2017-10-10T09:08:40.029Z,12616
2017-10-10T09:09:20.457Z,14044
2017-10-10T09:10:01.003Z,14852
2017-10-10T09:10:41.517Z,14884
2017-10-10T09:11:22.139Z,15100
2017-10-10T09:12:02.672Z,16456
2017-10-10T09:12:43.152Z,19008
2017-10-10T09:13:23.702Z,20416
2017-10-10T09:14:04.184Z,21152
2017-10-10T09:14:44.765Z,21856
2017-10-10T09:15:25.320Z,22624
2017-10-10T09:16:05.778Z,21376
2017-10-10T09:16:46.272Z,19200
2017-10-10T09:17:26.722Z,17888
2017-10-10T09:18:07.214Z,15692
2017-10-10T09:18:47.801Z,14464
2017-10-10T09:19:28.469Z,14828
2017-10-10T09:20:08.980Z,16764
2017-10-10T09:20:49.519Z,17728
2017-10-10T09:21:30.174Z,18048
2017-10-10T09:22:10.964Z,17952
2017-10-10T09:22:51.574Z,19488
2017-10-10T09:23:32.576Z,19712
2017-10-10T09:24:12.692Z,15588
2017-10-10T09:24:53.335Z,13928
2017-10-10T09:25:33.951Z,11452
2017-10-10T09:26:15.011Z,8852
2017-10-10T09:26:55.544Z,7700
2017-10-10T09:27:36.028Z,7296
2017-10-10T09:28:17.290Z,7180
2017-10-10T09:28:57.839Z,7300
2017-10-10T09:29:38.303Z,7632
2017-10-10T09:30:18.797Z,7860
2017-10-10T09:30:59.281Z,7728
2017-10-10T09:31:39.768Z,7520
2017-10-10T09:32:20.291Z,7384
2017-10-10T09:33:00.746Z,7364
2017-10-10T09:33:41.215Z,7436
2017-10-10T09:34:21.699Z,7240
2017-10-10T09:35:02.185Z,7076
2017-10-10T09:35:42.652Z,7024
2017-10-10T09:36:24.767Z,7156
2017-10-10T09:37:05.285Z,7012
2017-10-10T09:37:45.842Z,6688
2017-10-10T09:38:26.307Z,6408
2017-10-10T09:39:06.892Z,6212
2017-10-10T09:39:47.521Z,5936
2017-10-10T09:40:28.024Z,5908
2017-10-10T09:41:08.533Z,5952
2017-10-10T09:41:49.012Z,6336
2017-10-10T09:42:29.596Z,6400
2017-10-10T09:43:10.101Z,6024
2017-10-10T09:43:50.577Z,5544
2017-10-10T09:44:31.066Z,5236
2017-10-10T09:45:11.520Z,5124
2017-10-10T09:45:51.963Z,4984